sensor_id;sensor_type;location;lat;lon;timestamp;P1;durP1;ratioP1;P2;durP2;ratioP2
40757;SDS011;26462;47.384;19.218;2024-02-26T00:01:19;15.68;;;6.78;;
40757;SDS011;26462;47.384;19.218;2024-02-26T00:03:47;16.98;;;7.65;;
40757;SDS011;26462;47.384;19.218;2024-02-26T00:06:16;16.27;;;7.57;;
40757;SDS011;26462;47.384;19.218;2024-02-26T00:08:45;17.13;;;7.10;;
40757;SDS011;26462;47.384;19.218;2024-02-26T00:11:13;19.73;;;9.35;;
40757;SDS011;26462;47.384;19.218;2024-02-26T00:13:42;16.33;;;8.18;;
40757;SDS011;26462;47.384;19.218;2024-02-26T00:16:10;19.40;;;9.48;;
40757;SDS011;26462;47.384;19.218;2024-02-26T00:18:40;20.90;;;9.95;;
40757;SDS011;26462;47.384;19.218;2024-02-26T00:21:08;17.38;;;9.25;;
40757;SDS011;26462;47.384;19.218;2024-02-26T00:23:38;19.05;;;8.85;;
40757;SDS011;26462;47.384;19.218;2024-02-26T00:26:06;19.85;;;8.82;;
40757;SDS011;26462;47.384;19.218;2024-02-26T00:28:35;19.08;;;8.10;;
40757;SDS011;26462;47.384;19.218;2024-02-26T00:31:04;23.05;;;8.02;;
40757;SDS011;26462;47.384;19.218;2024-02-26T00:33:34;17.95;;;8.40;;
40757;SDS011;26462;47.384;19.218;2024-02-26T00:36:05;16.38;;;7.03;;
40757;SDS011;26462;47.384;19.218;2024-02-26T00:38:34;18.35;;;8.35;;
40757;SDS011;26462;47.384;19.218;2024-02-26T00:41:04;17.65;;;8.15;;
40757;SDS011;26462;47.384;19.218;2024-02-26T00:43:32;19.95;;;8.23;;
40757;SDS011;26462;47.384;19.218;2024-02-26T00:46:01;17.27;;;8.40;;
40757;SDS011;26462;47.384;19.218;2024-02-26T00:48:33;16.75;;;8.40;;
40757;SDS011;26462;47.384;19.218;2024-02-26T00:51:01;19.10;;;8.60;;
40757;SDS011;26462;47.384;19.218;2024-02-26T00:53:33;15.45;;;8.85;;
40757;SDS011;26462;47.384;19.218;2024-02-26T00:56:02;16.80;;;7.90;;
40757;SDS011;26462;47.384;19.218;2024-02-26T00:58:30;17.70;;;8.25;;
40757;SDS011;26462;47.384;19.218;2024-02-26T01:00:59;17.23;;;9.75;;
40757;SDS011;26462;47.384;19.218;2024-02-26T01:03:27;23.25;;;9.98;;
40757;SDS011;26462;47.384;19.218;2024-02-26T01:05:56;21.50;;;10.65;;
40757;SDS011;26462;47.384;19.218;2024-02-26T01:08:25;15.57;;;8.43;;
40757;SDS011;26462;47.384;19.218;2024-02-26T01:10:55;19.23;;;8.82;;
40757;SDS011;26462;47.384;19.218;2024-02-26T01:13:24;19.27;;;8.85;;
40757;SDS011;26462;47.384;19.218;2024-02-26T01:15:52;18.65;;;8.95;;
40757;SDS011;26462;47.384;19.218;2024-02-26T01:18:21;19.58;;;9.05;;
40757;SDS011;26462;47.384;19.218;2024-02-26T01:20:50;21.10;;;9.18;;
40757;SDS011;26462;47.384;19.218;2024-02-26T01:23:21;20.65;;;10.30;;
40757;SDS011;26462;47.384;19.218;2024-02-26T01:25:49;21.52;;;10.02;;
40757;SDS011;26462;47.384;19.218;2024-02-26T01:28:19;18.05;;;9.00;;
40757;SDS011;26462;47.384;19.218;2024-02-26T01:30:48;22.33;;;10.23;;
40757;SDS011;26462;47.384;19.218;2024-02-26T01:33:16;21.00;;;9.68;;
40757;SDS011;26462;47.384;19.218;2024-02-26T01:35:45;20.40;;;10.65;;
40757;SDS011;26462;47.384;19.218;2024-02-26T01:38:13;22.30;;;10.05;;
40757;SDS011;26462;47.384;19.218;2024-02-26T01:40:44;19.67;;;10.07;;
40757;SDS011;26462;47.384;19.218;2024-02-26T01:43:12;21.67;;;9.73;;
40757;SDS011;26462;47.384;19.218;2024-02-26T01:45:42;21.50;;;9.85;;
40757;SDS011;26462;47.384;19.218;2024-02-26T01:48:11;18.30;;;8.88;;
40757;SDS011;26462;47.384;19.218;2024-02-26T01:50:39;18.25;;;9.05;;
40757;SDS011;26462;47.384;19.218;2024-02-26T01:53:08;21.10;;;9.65;;
40757;SDS011;26462;47.384;19.218;2024-02-26T01:55:38;21.30;;;9.10;;
40757;SDS011;26462;47.384;19.218;2024-02-26T01:58:06;18.52;;;8.52;;
40757;SDS011;26462;47.384;19.218;2024-02-26T02:00:35;18.15;;;8.80;;
40757;SDS011;26462;47.384;19.218;2024-02-26T02:03:06;17.60;;;9.07;;
40757;SDS011;26462;47.384;19.218;2024-02-26T02:05:34;19.55;;;8.98;;
40757;SDS011;26462;47.384;19.218;2024-02-26T02:08:09;17.05;;;8.30;;
40757;SDS011;26462;47.384;19.218;2024-02-26T02:10:40;18.40;;;8.88;;
40757;SDS011;26462;47.384;19.218;2024-02-26T02:13:10;20.30;;;8.95;;
40757;SDS011;26462;47.384;19.218;2024-02-26T02:15:38;17.60;;;9.13;;
40757;SDS011;26462;47.384;19.218;2024-02-26T02:18:11;19.70;;;8.80;;
40757;SDS011;26462;47.384;19.218;2024-02-26T02:20:41;19.33;;;9.30;;
40757;SDS011;26462;47.384;19.218;2024-02-26T02:23:09;14.02;;;7.70;;
40757;SDS011;26462;47.384;19.218;2024-02-26T02:25:38;15.93;;;7.80;;
40757;SDS011;26462;47.384;19.218;2024-02-26T02:28:06;15.35;;;7.22;;
40757;SDS011;26462;47.384;19.218;2024-02-26T02:30:35;16.15;;;7.90;;
40757;SDS011;26462;47.384;19.218;2024-02-26T02:33:05;16.05;;;7.63;;
40757;SDS011;26462;47.384;19.218;2024-02-26T02:35:33;19.50;;;7.10;;
40757;SDS011;26462;47.384;19.218;2024-02-26T02:38:04;14.65;;;7.38;;
40757;SDS011;26462;47.384;19.218;2024-02-26T02:40:33;16.70;;;7.88;;
40757;SDS011;26462;47.384;19.218;2024-02-26T02:43:01;15.25;;;8.55;;
40757;SDS011;26462;47.384;19.218;2024-02-26T02:45:31;19.70;;;8.80;;
40757;SDS011;26462;47.384;19.218;2024-02-26T02:47:59;15.05;;;7.35;;
40757;SDS011;26462;47.384;19.218;2024-02-26T02:50:28;17.25;;;7.28;;
40757;SDS011;26462;47.384;19.218;2024-02-26T02:52:56;15.70;;;7.80;;
40757;SDS011;26462;47.384;19.218;2024-02-26T02:55:26;13.57;;;7.25;;
40757;SDS011;26462;47.384;19.218;2024-02-26T02:57:57;17.48;;;8.05;;
40757;SDS011;26462;47.384;19.218;2024-02-26T03:00:26;18.40;;;8.35;;
40757;SDS011;26462;47.384;19.218;2024-02-26T03:02:54;17.65;;;7.35;;
40757;SDS011;26462;47.384;19.218;2024-02-26T03:05:23;15.32;;;8.30;;
40757;SDS011;26462;47.384;19.218;2024-02-26T03:07:52;16.85;;;8.20;;
40757;SDS011;26462;47.384;19.218;2024-02-26T03:10:20;15.25;;;7.18;;
40757;SDS011;26462;47.384;19.218;2024-02-26T03:12:51;17.25;;;7.65;;
40757;SDS011;26462;47.384;19.218;2024-02-26T03:15:20;15.07;;;7.60;;
40757;SDS011;26462;47.384;19.218;2024-02-26T03:17:48;16.30;;;7.40;;
40757;SDS011;26462;47.384;19.218;2024-02-26T03:20:17;20.45;;;8.75;;
40757;SDS011;26462;47.384;19.218;2024-02-26T03:22:49;17.63;;;7.82;;
40757;SDS011;26462;47.384;19.218;2024-02-26T03:25:17;15.60;;;7.72;;
40757;SDS011;26462;47.384;19.218;2024-02-26T03:27:45;16.55;;;8.20;;
40757;SDS011;26462;47.384;19.218;2024-02-26T03:30:15;19.20;;;8.27;;
40757;SDS011;26462;47.384;19.218;2024-02-26T03:32:44;17.42;;;8.25;;
40757;SDS011;26462;47.384;19.218;2024-02-26T03:35:13;21.52;;;8.50;;
40757;SDS011;26462;47.384;19.218;2024-02-26T03:37:43;18.92;;;8.57;;
40757;SDS011;26462;47.384;19.218;2024-02-26T03:40:14;17.13;;;8.45;;
40757;SDS011;26462;47.384;19.218;2024-02-26T03:42:42;18.42;;;8.25;;
40757;SDS011;26462;47.384;19.218;2024-02-26T03:45:11;16.15;;;8.30;;
40757;SDS011;26462;47.384;19.218;2024-02-26T03:47:40;17.20;;;8.77;;
40757;SDS011;26462;47.384;19.218;2024-02-26T03:50:09;16.67;;;7.97;;
40757;SDS011;26462;47.384;19.218;2024-02-26T03:52:38;18.30;;;9.43;;
40757;SDS011;26462;47.384;19.218;2024-02-26T03:55:07;18.02;;;8.70;;
40757;SDS011;26462;47.384;19.218;2024-02-26T03:57:38;20.48;;;7.95;;
40757;SDS011;26462;47.384;19.218;2024-02-26T04:00:07;16.92;;;8.65;;
40757;SDS011;26462;47.384;19.218;2024-02-26T04:02:38;17.25;;;7.93;;
40757;SDS011;26462;47.384;19.218;2024-02-26T04:05:10;17.60;;;8.63;;
40757;SDS011;26462;47.384;19.218;2024-02-26T04:07:39;22.80;;;10.63;;
40757;SDS011;26462;47.384;19.218;2024-02-26T04:10:08;21.90;;;10.82;;
40757;SDS011;26462;47.384;19.218;2024-02-26T04:12:38;21.67;;;10.27;;
40757;SDS011;26462;47.384;19.218;2024-02-26T04:15:08;22.80;;;11.05;;
40757;SDS011;26462;47.384;19.218;2024-02-26T04:17:38;22.95;;;10.07;;
40757;SDS011;26462;47.384;19.218;2024-02-26T04:20:07;22.23;;;11.05;;
40757;SDS011;26462;47.384;19.218;2024-02-26T04:22:41;24.20;;;10.20;;
40757;SDS011;26462;47.384;19.218;2024-02-26T04:25:09;20.75;;;10.05;;
40757;SDS011;26462;47.384;19.218;2024-02-26T04:27:38;23.67;;;10.13;;
40757;SDS011;26462;47.384;19.218;2024-02-26T04:30:07;22.30;;;9.88;;
40757;SDS011;26462;47.384;19.218;2024-02-26T04:32:38;33.90;;;11.93;;
40757;SDS011;26462;47.384;19.218;2024-02-26T04:35:07;22.13;;;10.15;;
40757;SDS011;26462;47.384;19.218;2024-02-26T04:37:38;24.30;;;11.02;;
40757;SDS011;26462;47.384;19.218;2024-02-26T04:40:07;22.45;;;10.35;;
40757;SDS011;26462;47.384;19.218;2024-02-26T04:42:36;21.15;;;10.43;;
40757;SDS011;26462;47.384;19.218;2024-02-26T04:45:05;20.75;;;10.52;;
40757;SDS011;26462;47.384;19.218;2024-02-26T04:47:35;24.02;;;11.77;;
40757;SDS011;26462;47.384;19.218;2024-02-26T04:50:04;22.85;;;10.75;;
40757;SDS011;26462;47.384;19.218;2024-02-26T04:52:35;26.00;;;11.23;;
40757;SDS011;26462;47.384;19.218;2024-02-26T04:55:04;20.08;;;9.77;;
40757;SDS011;26462;47.384;19.218;2024-02-26T04:57:32;22.05;;;10.55;;
40757;SDS011;26462;47.384;19.218;2024-02-26T05:00:02;23.70;;;11.57;;
40757;SDS011;26462;47.384;19.218;2024-02-26T05:02:31;23.48;;;11.25;;
40757;SDS011;26462;47.384;19.218;2024-02-26T05:05:05;25.90;;;12.70;;
40757;SDS011;26462;47.384;19.218;2024-02-26T05:07:40;28.30;;;13.23;;
40757;SDS011;26462;47.384;19.218;2024-02-26T05:10:11;32.83;;;13.02;;
40757;SDS011;26462;47.384;19.218;2024-02-26T05:12:39;27.45;;;13.55;;
40757;SDS011;26462;47.384;19.218;2024-02-26T05:15:09;28.35;;;13.50;;
40757;SDS011;26462;47.384;19.218;2024-02-26T05:17:39;29.50;;;13.50;;
40757;SDS011;26462;47.384;19.218;2024-02-26T05:20:08;28.58;;;12.80;;
40757;SDS011;26462;47.384;19.218;2024-02-26T05:22:37;34.47;;;15.18;;
40757;SDS011;26462;47.384;19.218;2024-02-26T05:25:08;30.60;;;13.95;;
40757;SDS011;26462;47.384;19.218;2024-02-26T05:27:36;28.10;;;13.00;;
40757;SDS011;26462;47.384;19.218;2024-02-26T05:30:05;26.55;;;11.73;;
40757;SDS011;26462;47.384;19.218;2024-02-26T05:32:37;24.88;;;10.55;;
40757;SDS011;26462;47.384;19.218;2024-02-26T05:35:06;26.83;;;11.55;;
40757;SDS011;26462;47.384;19.218;2024-02-26T05:37:35;28.30;;;11.93;;
40757;SDS011;26462;47.384;19.218;2024-02-26T05:40:04;24.83;;;10.23;;
40757;SDS011;26462;47.384;19.218;2024-02-26T05:42:35;21.15;;;10.52;;
40757;SDS011;26462;47.384;19.218;2024-02-26T05:45:05;28.45;;;10.07;;
40757;SDS011;26462;47.384;19.218;2024-02-26T05:47:35;23.98;;;10.70;;
40757;SDS011;26462;47.384;19.218;2024-02-26T05:50:09;25.10;;;10.90;;
40757;SDS011;26462;47.384;19.218;2024-02-26T05:52:39;23.10;;;10.38;;
40757;SDS011;26462;47.384;19.218;2024-02-26T05:55:08;31.80;;;13.10;;
40757;SDS011;26462;47.384;19.218;2024-02-26T05:57:41;29.70;;;12.82;;
40757;SDS011;26462;47.384;19.218;2024-02-26T06:00:10;32.00;;;15.00;;
40757;SDS011;26462;47.384;19.218;2024-02-26T06:02:41;33.53;;;13.98;;
40757;SDS011;26462;47.384;19.218;2024-02-26T06:05:10;32.25;;;13.38;;
40757;SDS011;26462;47.384;19.218;2024-02-26T06:07:38;30.33;;;13.20;;
40757;SDS011;26462;47.384;19.218;2024-02-26T06:10:08;31.45;;;13.60;;
40757;SDS011;26462;47.384;19.218;2024-02-26T06:12:37;28.23;;;12.07;;
40757;SDS011;26462;47.384;19.218;2024-02-26T06:15:08;26.20;;;11.45;;
40757;SDS011;26462;47.384;19.218;2024-02-26T06:17:38;24.70;;;10.70;;
40757;SDS011;26462;47.384;19.218;2024-02-26T06:20:07;26.08;;;10.02;;
40757;SDS011;26462;47.384;19.218;2024-02-26T06:22:39;23.65;;;9.02;;
40757;SDS011;26462;47.384;19.218;2024-02-26T06:25:08;20.40;;;8.80;;
40757;SDS011;26462;47.384;19.218;2024-02-26T06:27:36;24.63;;;9.00;;
40757;SDS011;26462;47.384;19.218;2024-02-26T06:30:05;23.58;;;8.85;;
40757;SDS011;26462;47.384;19.218;2024-02-26T06:32:37;20.08;;;8.75;;
40757;SDS011;26462;47.384;19.218;2024-02-26T06:35:06;21.35;;;8.30;;
40757;SDS011;26462;47.384;19.218;2024-02-26T06:37:36;20.63;;;8.73;;
40757;SDS011;26462;47.384;19.218;2024-02-26T06:40:05;17.63;;;8.13;;
40757;SDS011;26462;47.384;19.218;2024-02-26T06:42:34;20.65;;;8.23;;
40757;SDS011;26462;47.384;19.218;2024-02-26T06:45:04;24.42;;;8.88;;
40757;SDS011;26462;47.384;19.218;2024-02-26T06:47:36;22.52;;;8.32;;
40757;SDS011;26462;47.384;19.218;2024-02-26T06:50:04;19.45;;;8.05;;
40757;SDS011;26462;47.384;19.218;2024-02-26T06:52:33;24.80;;;9.10;;
40757;SDS011;26462;47.384;19.218;2024-02-26T06:55:02;19.27;;;8.45;;
40757;SDS011;26462;47.384;19.218;2024-02-26T06:57:31;20.52;;;8.88;;
40757;SDS011;26462;47.384;19.218;2024-02-26T07:00:00;19.38;;;8.38;;
40757;SDS011;26462;47.384;19.218;2024-02-26T07:02:30;22.75;;;8.75;;
40757;SDS011;26462;47.384;19.218;2024-02-26T07:05:03;19.48;;;7.80;;
40757;SDS011;26462;47.384;19.218;2024-02-26T07:07:32;20.17;;;8.52;;
40757;SDS011;26462;47.384;19.218;2024-02-26T07:10:00;18.10;;;8.20;;
40757;SDS011;26462;47.384;19.218;2024-02-26T07:12:30;19.30;;;8.90;;
40757;SDS011;26462;47.384;19.218;2024-02-26T07:14:58;23.98;;;9.32;;
40757;SDS011;26462;47.384;19.218;2024-02-26T07:17:27;21.10;;;9.00;;
40757;SDS011;26462;47.384;19.218;2024-02-26T07:19:56;21.17;;;8.70;;
40757;SDS011;26462;47.384;19.218;2024-02-26T07:22:25;21.00;;;10.20;;
40757;SDS011;26462;47.384;19.218;2024-02-26T07:24:54;23.15;;;10.88;;
40757;SDS011;26462;47.384;19.218;2024-02-26T07:27:23;23.35;;;10.52;;
40757;SDS011;26462;47.384;19.218;2024-02-26T07:29:51;26.30;;;11.25;;
40757;SDS011;26462;47.384;19.218;2024-02-26T07:32:19;24.63;;;11.35;;
40757;SDS011;26462;47.384;19.218;2024-02-26T07:34:49;24.52;;;11.18;;
40757;SDS011;26462;47.384;19.218;2024-02-26T07:37:17;31.10;;;13.02;;
40757;SDS011;26462;47.384;19.218;2024-02-26T07:39:47;27.17;;;13.15;;
40757;SDS011;26462;47.384;19.218;2024-02-26T07:42:16;28.30;;;11.82;;
40757;SDS011;26462;47.384;19.218;2024-02-26T07:44:44;24.90;;;11.50;;
40757;SDS011;26462;47.384;19.218;2024-02-26T07:47:13;25.67;;;12.48;;
40757;SDS011;26462;47.384;19.218;2024-02-26T07:49:41;23.85;;;12.25;;
40757;SDS011;26462;47.384;19.218;2024-02-26T07:52:10;31.55;;;15.93;;
40757;SDS011;26462;47.384;19.218;2024-02-26T07:54:39;31.67;;;15.27;;
40757;SDS011;26462;47.384;19.218;2024-02-26T07:57:09;24.52;;;11.00;;
40757;SDS011;26462;47.384;19.218;2024-02-26T07:59:40;26.85;;;12.82;;
40757;SDS011;26462;47.384;19.218;2024-02-26T08:02:08;28.80;;;12.93;;
40757;SDS011;26462;47.384;19.218;2024-02-26T08:04:37;26.75;;;12.13;;
40757;SDS011;26462;47.384;19.218;2024-02-26T08:07:05;28.08;;;12.75;;
40757;SDS011;26462;47.384;19.218;2024-02-26T08:09:34;23.52;;;11.02;;
40757;SDS011;26462;47.384;19.218;2024-02-26T08:12:03;27.58;;;12.82;;
40757;SDS011;26462;47.384;19.218;2024-02-26T08:14:34;29.50;;;13.75;;
40757;SDS011;26462;47.384;19.218;2024-02-26T08:17:02;24.65;;;10.88;;
40757;SDS011;26462;47.384;19.218;2024-02-26T08:19:31;26.05;;;12.50;;
40757;SDS011;26462;47.384;19.218;2024-02-26T08:22:02;28.38;;;11.70;;
40757;SDS011;26462;47.384;19.218;2024-02-26T08:24:31;25.20;;;13.15;;
40757;SDS011;26462;47.384;19.218;2024-02-26T08:26:59;26.52;;;12.52;;
40757;SDS011;26462;47.384;19.218;2024-02-26T08:29:29;25.77;;;12.70;;
40757;SDS011;26462;47.384;19.218;2024-02-26T08:31:58;30.00;;;14.25;;
40757;SDS011;26462;47.384;19.218;2024-02-26T08:34:27;23.77;;;11.38;;
40757;SDS011;26462;47.384;19.218;2024-02-26T08:36:55;27.00;;;13.07;;
40757;SDS011;26462;47.384;19.218;2024-02-26T08:39:24;26.98;;;14.50;;
40757;SDS011;26462;47.384;19.218;2024-02-26T08:41:53;29.00;;;13.88;;
40757;SDS011;26462;47.384;19.218;2024-02-26T08:44:21;27.10;;;14.15;;
40757;SDS011;26462;47.384;19.218;2024-02-26T08:46:49;28.38;;;13.68;;
40757;SDS011;26462;47.384;19.218;2024-02-26T08:49:19;28.80;;;13.98;;
40757;SDS011;26462;47.384;19.218;2024-02-26T08:51:50;24.02;;;13.35;;
40757;SDS011;26462;47.384;19.218;2024-02-26T08:54:19;25.00;;;12.82;;
40757;SDS011;26462;47.384;19.218;2024-02-26T08:56:47;27.77;;;14.95;;
40757;SDS011;26462;47.384;19.218;2024-02-26T08:59:16;37.38;;;16.50;;
40757;SDS011;26462;47.384;19.218;2024-02-26T09:01:49;27.83;;;13.82;;
40757;SDS011;26462;47.384;19.218;2024-02-26T09:04:17;25.85;;;13.43;;
40757;SDS011;26462;47.384;19.218;2024-02-26T09:06:47;27.95;;;15.10;;
40757;SDS011;26462;47.384;19.218;2024-02-26T09:09:16;32.00;;;14.75;;
40757;SDS011;26462;47.384;19.218;2024-02-26T09:11:47;32.28;;;16.00;;
40757;SDS011;26462;47.384;19.218;2024-02-26T09:14:18;29.83;;;13.88;;
40757;SDS011;26462;47.384;19.218;2024-02-26T09:16:46;29.58;;;15.40;;
40757;SDS011;26462;47.384;19.218;2024-02-26T09:19:15;23.95;;;10.48;;
40757;SDS011;26462;47.384;19.218;2024-02-26T09:21:45;28.20;;;15.20;;
40757;SDS011;26462;47.384;19.218;2024-02-26T09:24:13;24.23;;;14.60;;
40757;SDS011;26462;47.384;19.218;2024-02-26T09:26:42;27.55;;;13.57;;
40757;SDS011;26462;47.384;19.218;2024-02-26T09:29:11;31.55;;;15.43;;
40757;SDS011;26462;47.384;19.218;2024-02-26T09:31:39;30.48;;;14.25;;
40757;SDS011;26462;47.384;19.218;2024-02-26T09:34:08;30.90;;;15.77;;
40757;SDS011;26462;47.384;19.218;2024-02-26T09:36:37;24.83;;;13.23;;
40757;SDS011;26462;47.384;19.218;2024-02-26T09:39:07;30.35;;;16.55;;
40757;SDS011;26462;47.384;19.218;2024-02-26T09:41:38;31.05;;;16.17;;
40757;SDS011;26462;47.384;19.218;2024-02-26T09:44:07;29.27;;;15.55;;
40757;SDS011;26462;47.384;19.218;2024-02-26T09:46:37;28.60;;;16.33;;
40757;SDS011;26462;47.384;19.218;2024-02-26T09:49:05;29.30;;;15.63;;
40757;SDS011;26462;47.384;19.218;2024-02-26T09:51:36;27.98;;;16.00;;
40757;SDS011;26462;47.384;19.218;2024-02-26T09:54:08;28.40;;;15.13;;
40757;SDS011;26462;47.384;19.218;2024-02-26T09:56:38;24.02;;;13.45;;
40757;SDS011;26462;47.384;19.218;2024-02-26T09:59:21;24.35;;;14.52;;
40757;SDS011;26462;47.384;19.218;2024-02-26T10:01:50;28.17;;;14.95;;
40757;SDS011;26462;47.384;19.218;2024-02-26T10:04:19;26.05;;;13.75;;
40757;SDS011;26462;47.384;19.218;2024-02-26T10:06:49;26.25;;;15.82;;
40757;SDS011;26462;47.384;19.218;2024-02-26T10:09:20;25.67;;;14.27;;
40757;SDS011;26462;47.384;19.218;2024-02-26T10:11:49;25.50;;;14.40;;
40757;SDS011;26462;47.384;19.218;2024-02-26T10:14:17;24.17;;;12.82;;
40757;SDS011;26462;47.384;19.218;2024-02-26T10:16:47;23.20;;;13.05;;
40757;SDS011;26462;47.384;19.218;2024-02-26T10:19:24;23.08;;;12.57;;
40757;SDS011;26462;47.384;19.218;2024-02-26T10:21:56;28.00;;;14.45;;
40757;SDS011;26462;47.384;19.218;2024-02-26T10:24:26;24.23;;;12.40;;
40757;SDS011;26462;47.384;19.218;2024-02-26T10:26:55;26.80;;;14.45;;
40757;SDS011;26462;47.384;19.218;2024-02-26T10:29:24;24.13;;;13.45;;
40757;SDS011;26462;47.384;19.218;2024-02-26T10:31:54;26.40;;;13.18;;
40757;SDS011;26462;47.384;19.218;2024-02-26T10:34:23;26.75;;;14.00;;
40757;SDS011;26462;47.384;19.218;2024-02-26T10:36:53;27.10;;;12.60;;
40757;SDS011;26462;47.384;19.218;2024-02-26T10:39:21;20.27;;;11.32;;
40757;SDS011;26462;47.384;19.218;2024-02-26T10:41:51;28.30;;;14.38;;
40757;SDS011;26462;47.384;19.218;2024-02-26T10:44:20;29.77;;;14.43;;
40757;SDS011;26462;47.384;19.218;2024-02-26T10:46:48;26.23;;;13.65;;
40757;SDS011;26462;47.384;19.218;2024-02-26T10:49:17;25.05;;;11.93;;
40757;SDS011;26462;47.384;19.218;2024-02-26T10:51:50;19.75;;;10.23;;
40757;SDS011;26462;47.384;19.218;2024-02-26T10:54:24;17.20;;;9.80;;
40757;SDS011;26462;47.384;19.218;2024-02-26T10:56:57;16.92;;;10.25;;
40757;SDS011;26462;47.384;19.218;2024-02-26T10:59:26;20.25;;;10.77;;
40757;SDS011;26462;47.384;19.218;2024-02-26T11:01:56;17.70;;;9.93;;
40757;SDS011;26462;47.384;19.218;2024-02-26T11:04:25;18.75;;;9.77;;
40757;SDS011;26462;47.384;19.218;2024-02-26T11:06:56;20.40;;;10.88;;
40757;SDS011;26462;47.384;19.218;2024-02-26T11:09:26;21.67;;;11.82;;
40757;SDS011;26462;47.384;19.218;2024-02-26T11:11:57;19.33;;;9.98;;
40757;SDS011;26462;47.384;19.218;2024-02-26T11:14:26;19.48;;;10.02;;
40757;SDS011;26462;47.384;19.218;2024-02-26T11:16:57;19.48;;;10.43;;
40757;SDS011;26462;47.384;19.218;2024-02-26T11:19:27;15.27;;;9.05;;
40757;SDS011;26462;47.384;19.218;2024-02-26T11:22:01;17.45;;;9.20;;
40757;SDS011;26462;47.384;19.218;2024-02-26T11:24:44;17.95;;;9.88;;
40757;SDS011;26462;47.384;19.218;2024-02-26T11:27:14;17.52;;;9.70;;
40757;SDS011;26462;47.384;19.218;2024-02-26T11:29:47;18.65;;;10.15;;
40757;SDS011;26462;47.384;19.218;2024-02-26T11:32:18;15.63;;;8.80;;
40757;SDS011;26462;47.384;19.218;2024-02-26T11:34:47;14.50;;;8.40;;
40757;SDS011;26462;47.384;19.218;2024-02-26T11:37:17;15.20;;;7.60;;
40757;SDS011;26462;47.384;19.218;2024-02-26T11:39:45;15.10;;;8.07;;
40757;SDS011;26462;47.384;19.218;2024-02-26T11:42:15;13.13;;;8.10;;
40757;SDS011;26462;47.384;19.218;2024-02-26T11:44:45;13.18;;;7.05;;
40757;SDS011;26462;47.384;19.218;2024-02-26T11:47:13;14.73;;;8.35;;
40757;SDS011;26462;47.384;19.218;2024-02-26T11:49:46;12.70;;;7.20;;
40757;SDS011;26462;47.384;19.218;2024-02-26T11:52:15;11.35;;;5.82;;
40757;SDS011;26462;47.384;19.218;2024-02-26T11:54:44;13.80;;;5.72;;
40757;SDS011;26462;47.384;19.218;2024-02-26T11:57:25;12.38;;;5.63;;
40757;SDS011;26462;47.384;19.218;2024-02-26T11:59:56;11.27;;;6.10;;
40757;SDS011;26462;47.384;19.218;2024-02-26T12:02:44;8.43;;;4.53;;
40757;SDS011;26462;47.384;19.218;2024-02-26T12:05:14;9.05;;;4.75;;
40757;SDS011;26462;47.384;19.218;2024-02-26T12:07:45;13.50;;;4.93;;
40757;SDS011;26462;47.384;19.218;2024-02-26T12:10:22;10.40;;;5.50;;
40757;SDS011;26462;47.384;19.218;2024-02-26T12:12:54;10.93;;;5.78;;
40757;SDS011;26462;47.384;19.218;2024-02-26T12:15:31;11.57;;;5.68;;
40757;SDS011;26462;47.384;19.218;2024-02-26T12:18:01;12.82;;;6.20;;
40757;SDS011;26462;47.384;19.218;2024-02-26T12:20:30;10.60;;;5.65;;
40757;SDS011;26462;47.384;19.218;2024-02-26T12:23:01;10.00;;;5.28;;
40757;SDS011;26462;47.384;19.218;2024-02-26T12:25:31;9.55;;;5.47;;
40757;SDS011;26462;47.384;19.218;2024-02-26T12:28:02;8.52;;;5.65;;
40757;SDS011;26462;47.384;19.218;2024-02-26T12:30:31;10.68;;;5.40;;
40757;SDS011;26462;47.384;19.218;2024-02-26T12:33:00;8.38;;;4.97;;
40757;SDS011;26462;47.384;19.218;2024-02-26T12:35:29;11.75;;;5.00;;
40757;SDS011;26462;47.384;19.218;2024-02-26T12:37:59;8.88;;;5.40;;
40757;SDS011;26462;47.384;19.218;2024-02-26T12:40:29;7.43;;;4.65;;
40757;SDS011;26462;47.384;19.218;2024-02-26T12:42:58;8.07;;;4.10;;
40757;SDS011;26462;47.384;19.218;2024-02-26T12:45:28;10.30;;;4.35;;
40757;SDS011;26462;47.384;19.218;2024-02-26T12:47:57;6.60;;;3.47;;
40757;SDS011;26462;47.384;19.218;2024-02-26T12:50:27;7.07;;;3.55;;
40757;SDS011;26462;47.384;19.218;2024-02-26T12:52:56;7.05;;;4.10;;
40757;SDS011;26462;47.384;19.218;2024-02-26T12:55:24;6.28;;;4.20;;
40757;SDS011;26462;47.384;19.218;2024-02-26T12:57:57;8.30;;;4.97;;
40757;SDS011;26462;47.384;19.218;2024-02-26T13:00:26;7.35;;;4.25;;
40757;SDS011;26462;47.384;19.218;2024-02-26T13:02:56;6.88;;;4.25;;
40757;SDS011;26462;47.384;19.218;2024-02-26T13:05:27;6.60;;;4.00;;
40757;SDS011;26462;47.384;19.218;2024-02-26T13:07:56;5.82;;;3.90;;
40757;SDS011;26462;47.384;19.218;2024-02-26T13:10:26;6.45;;;4.30;;
40757;SDS011;26462;47.384;19.218;2024-02-26T13:12:54;6.88;;;4.70;;
40757;SDS011;26462;47.384;19.218;2024-02-26T13:15:23;7.70;;;5.20;;
40757;SDS011;26462;47.384;19.218;2024-02-26T13:17:53;7.95;;;4.68;;
40757;SDS011;26462;47.384;19.218;2024-02-26T13:20:26;7.15;;;3.88;;
40757;SDS011;26462;47.384;19.218;2024-02-26T13:23:02;8.05;;;5.93;;
40757;SDS011;26462;47.384;19.218;2024-02-26T13:25:32;6.28;;;4.70;;
40757;SDS011;26462;47.384;19.218;2024-02-26T13:28:08;7.93;;;5.07;;
40757;SDS011;26462;47.384;19.218;2024-02-26T13:30:49;8.00;;;5.28;;
40757;SDS011;26462;47.384;19.218;2024-02-26T13:33:19;9.18;;;5.88;;
40757;SDS011;26462;47.384;19.218;2024-02-26T13:35:50;10.02;;;5.43;;
40757;SDS011;26462;47.384;19.218;2024-02-26T13:38:19;10.45;;;6.03;;
40757;SDS011;26462;47.384;19.218;2024-02-26T13:40:49;9.82;;;5.57;;
40757;SDS011;26462;47.384;19.218;2024-02-26T13:43:18;7.05;;;5.25;;
40757;SDS011;26462;47.384;19.218;2024-02-26T13:45:46;8.55;;;5.50;;
40757;SDS011;26462;47.384;19.218;2024-02-26T13:48:15;10.18;;;5.55;;
40757;SDS011;26462;47.384;19.218;2024-02-26T13:50:45;9.50;;;5.10;;
40757;SDS011;26462;47.384;19.218;2024-02-26T13:53:14;6.72;;;4.20;;
40757;SDS011;26462;47.384;19.218;2024-02-26T13:55:42;9.88;;;5.45;;
40757;SDS011;26462;47.384;19.218;2024-02-26T13:58:11;9.05;;;5.35;;
40757;SDS011;26462;47.384;19.218;2024-02-26T14:00:41;11.98;;;5.10;;
40757;SDS011;26462;47.384;19.218;2024-02-26T14:03:10;9.30;;;5.82;;
40757;SDS011;26462;47.384;19.218;2024-02-26T14:05:39;10.93;;;6.18;;
40757;SDS011;26462;47.384;19.218;2024-02-26T14:08:13;11.18;;;6.90;;
40757;SDS011;26462;47.384;19.218;2024-02-26T14:10:42;10.18;;;6.88;;
40757;SDS011;26462;47.384;19.218;2024-02-26T14:13:11;10.60;;;7.15;;
40757;SDS011;26462;47.384;19.218;2024-02-26T14:15:40;10.68;;;7.35;;
40757;SDS011;26462;47.384;19.218;2024-02-26T14:18:08;11.10;;;7.43;;
40757;SDS011;26462;47.384;19.218;2024-02-26T14:20:37;10.57;;;6.60;;
40757;SDS011;26462;47.384;19.218;2024-02-26T14:23:07;12.88;;;7.57;;
40757;SDS011;26462;47.384;19.218;2024-02-26T14:25:39;11.73;;;6.85;;
40757;SDS011;26462;47.384;19.218;2024-02-26T14:28:07;13.50;;;8.20;;
40757;SDS011;26462;47.384;19.218;2024-02-26T14:30:45;11.77;;;8.00;;
40757;SDS011;26462;47.384;19.218;2024-02-26T14:33:13;23.45;;;10.15;;